sensor_id;sensor_type;location;lat;lon;timestamp;P1;durP1;ratioP1;P2;durP2;ratioP2
54269;SDS011;40181;51.560;13.000;2024-02-26T00:00:31;4.63;;;2.65;;
54269;SDS011;40181;51.560;13.000;2024-02-26T00:03:00;4.20;;;2.10;;
54269;SDS011;40181;51.560;13.000;2024-02-26T00:05:29;2.97;;;2.35;;
54269;SDS011;40181;51.560;13.000;2024-02-26T00:07:58;2.15;;;1.95;;
54269;SDS011;40181;51.560;13.000;2024-02-26T00:10:30;3.13;;;2.38;;
54269;SDS011;40181;51.560;13.000;2024-02-26T00:12:59;2.75;;;2.13;;
54269;SDS011;40181;51.560;13.000;2024-02-26T00:15:28;2.05;;;1.85;;
54269;SDS011;40181;51.560;13.000;2024-02-26T00:18:00;3.83;;;2.05;;
54269;SDS011;40181;51.560;13.000;2024-02-26T00:20:29;3.80;;;2.75;;
54269;SDS011;40181;51.560;13.000;2024-02-26T00:22:58;4.05;;;2.38;;
54269;SDS011;40181;51.560;13.000;2024-02-26T00:25:29;2.63;;;2.40;;
54269;SDS011;40181;51.560;13.000;2024-02-26T00:27:58;5.35;;;2.42;;
54269;SDS011;40181;51.560;13.000;2024-02-26T00:30:27;12.00;;;2.88;;
54269;SDS011;40181;51.560;13.000;2024-02-26T00:32:56;4.50;;;3.20;;
54269;SDS011;40181;51.560;13.000;2024-02-26T00:35:26;2.88;;;2.60;;
54269;SDS011;40181;51.560;13.000;2024-02-26T00:37:55;3.05;;;2.40;;
54269;SDS011;40181;51.560;13.000;2024-02-26T00:40:24;3.93;;;3.03;;
54269;SDS011;40181;51.560;13.000;2024-02-26T00:42:56;4.22;;;3.08;;
54269;SDS011;40181;51.560;13.000;2024-02-26T00:45:25;5.43;;;3.80;;
54269;SDS011;40181;51.560;13.000;2024-02-26T00:47:57;4.45;;;3.70;;
54269;SDS011;40181;51.560;13.000;2024-02-26T00:50:29;5.13;;;4.00;;
54269;SDS011;40181;51.560;13.000;2024-02-26T00:52:58;6.88;;;4.72;;
54269;SDS011;40181;51.560;13.000;2024-02-26T00:55:27;9.20;;;4.97;;
54269;SDS011;40181;51.560;13.000;2024-02-26T00:57:59;5.80;;;3.85;;
54269;SDS011;40181;51.560;13.000;2024-02-26T01:00:28;6.20;;;3.75;;
54269;SDS011;40181;51.560;13.000;2024-02-26T01:02:57;5.80;;;3.90;;
54269;SDS011;40181;51.560;13.000;2024-02-26T01:05:28;4.75;;;3.80;;
54269;SDS011;40181;51.560;13.000;2024-02-26T01:07:57;5.88;;;3.58;;
54269;SDS011;40181;51.560;13.000;2024-02-26T01:10:26;6.78;;;3.85;;
54269;SDS011;40181;51.560;13.000;2024-02-26T01:12:55;6.07;;;3.67;;
54269;SDS011;40181;51.560;13.000;2024-02-26T01:15:27;7.10;;;3.13;;
54269;SDS011;40181;51.560;13.000;2024-02-26T01:17:56;4.75;;;3.60;;
54269;SDS011;40181;51.560;13.000;2024-02-26T01:20:25;4.47;;;3.33;;
54269;SDS011;40181;51.560;13.000;2024-02-26T01:22:54;4.80;;;3.13;;
54269;SDS011;40181;51.560;13.000;2024-02-26T01:25:23;6.18;;;4.35;;
54269;SDS011;40181;51.560;13.000;2024-02-26T01:27:52;6.25;;;4.53;;
54269;SDS011;40181;51.560;13.000;2024-02-26T01:30:24;7.28;;;4.22;;
54269;SDS011;40181;51.560;13.000;2024-02-26T01:32:53;5.43;;;4.05;;
54269;SDS011;40181;51.560;13.000;2024-02-26T01:35:22;5.38;;;3.80;;
54269;SDS011;40181;51.560;13.000;2024-02-26T01:37:51;4.93;;;3.88;;
54269;SDS011;40181;51.560;13.000;2024-02-26T01:40:20;6.07;;;3.90;;
54269;SDS011;40181;51.560;13.000;2024-02-26T01:42:50;4.00;;;3.42;;
54269;SDS011;40181;51.560;13.000;2024-02-26T01:45:24;3.47;;;3.00;;
54269;SDS011;40181;51.560;13.000;2024-02-26T01:47:53;6.05;;;3.85;;
54269;SDS011;40181;51.560;13.000;2024-02-26T01:50:24;4.22;;;3.45;;
54269;SDS011;40181;51.560;13.000;2024-02-26T01:52:53;5.10;;;3.92;;
54269;SDS011;40181;51.560;13.000;2024-02-26T01:55:23;3.97;;;3.33;;
54269;SDS011;40181;51.560;13.000;2024-02-26T02:00:25;5.35;;;3.78;;
54269;SDS011;40181;51.560;13.000;2024-02-26T02:02:54;5.88;;;3.55;;
54269;SDS011;40181;51.560;13.000;2024-02-26T02:05:23;5.57;;;3.85;;
54269;SDS011;40181;51.560;13.000;2024-02-26T02:10:23;3.67;;;3.08;;
54269;SDS011;40181;51.560;13.000;2024-02-26T02:12:54;4.30;;;3.60;;
54269;SDS011;40181;51.560;13.000;2024-02-26T02:15:26;4.80;;;3.55;;
54269;SDS011;40181;51.560;13.000;2024-02-26T02:17:55;5.47;;;4.32;;
54269;SDS011;40181;51.560;13.000;2024-02-26T02:20:27;5.22;;;4.00;;
54269;SDS011;40181;51.560;13.000;2024-02-26T02:23:00;7.68;;;3.97;;
54269;SDS011;40181;51.560;13.000;2024-02-26T02:25:29;4.53;;;3.67;;
54269;SDS011;40181;51.560;13.000;2024-02-26T02:27:59;5.32;;;4.57;;
54269;SDS011;40181;51.560;13.000;2024-02-26T02:30:29;7.03;;;4.07;;
54269;SDS011;40181;51.560;13.000;2024-02-26T02:33:00;6.28;;;3.65;;
54269;SDS011;40181;51.560;13.000;2024-02-26T02:35:32;4.18;;;2.88;;
54269;SDS011;40181;51.560;13.000;2024-02-26T02:38:01;9.60;;;4.13;;
54269;SDS011;40181;51.560;13.000;2024-02-26T02:40:31;4.47;;;3.72;;
54269;SDS011;40181;51.560;13.000;2024-02-26T02:43:00;7.35;;;4.18;;
54269;SDS011;40181;51.560;13.000;2024-02-26T02:45:30;4.70;;;3.63;;
54269;SDS011;40181;51.560;13.000;2024-02-26T02:47:59;4.88;;;3.95;;
54269;SDS011;40181;51.560;13.000;2024-02-26T02:50:28;4.70;;;4.00;;
54269;SDS011;40181;51.560;13.000;2024-02-26T02:52:59;5.25;;;4.00;;
54269;SDS011;40181;51.560;13.000;2024-02-26T02:55:28;7.32;;;4.72;;
54269;SDS011;40181;51.560;13.000;2024-02-26T02:57:57;3.88;;;3.42;;
54269;SDS011;40181;51.560;13.000;2024-02-26T03:00:26;5.78;;;4.13;;
54269;SDS011;40181;51.560;13.000;2024-02-26T03:02:56;5.28;;;3.95;;
54269;SDS011;40181;51.560;13.000;2024-02-26T03:05:25;5.72;;;4.20;;
54269;SDS011;40181;51.560;13.000;2024-02-26T03:07:54;7.22;;;4.25;;
54269;SDS011;40181;51.560;13.000;2024-02-26T03:10:25;5.05;;;3.60;;
54269;SDS011;40181;51.560;13.000;2024-02-26T03:12:54;3.85;;;3.47;;
54269;SDS011;40181;51.560;13.000;2024-02-26T03:15:24;3.78;;;3.33;;
54269;SDS011;40181;51.560;13.000;2024-02-26T03:17:53;4.90;;;3.60;;
54269;SDS011;40181;51.560;13.000;2024-02-26T03:20:22;5.22;;;3.42;;
54269;SDS011;40181;51.560;13.000;2024-02-26T03:22:51;3.80;;;3.30;;
54269;SDS011;40181;51.560;13.000;2024-02-26T03:25:20;6.63;;;3.75;;
54269;SDS011;40181;51.560;13.000;2024-02-26T03:27:52;3.97;;;3.35;;
54269;SDS011;40181;51.560;13.000;2024-02-26T03:30:21;4.72;;;3.40;;
54269;SDS011;40181;51.560;13.000;2024-02-26T03:32:50;5.35;;;4.25;;
54269;SDS011;40181;51.560;13.000;2024-02-26T03:35:19;5.63;;;4.22;;
54269;SDS011;40181;51.560;13.000;2024-02-26T03:37:48;3.90;;;3.50;;
54269;SDS011;40181;51.560;13.000;2024-02-26T03:40:17;4.68;;;4.00;;
54269;SDS011;40181;51.560;13.000;2024-02-26T03:42:46;5.88;;;3.80;;
54269;SDS011;40181;51.560;13.000;2024-02-26T03:45:20;5.15;;;3.72;;
54269;SDS011;40181;51.560;13.000;2024-02-26T03:47:50;3.40;;;3.10;;
54269;SDS011;40181;51.560;13.000;2024-02-26T03:50:19;4.03;;;3.28;;
54269;SDS011;40181;51.560;13.000;2024-02-26T03:52:49;7.63;;;4.53;;
54269;SDS011;40181;51.560;13.000;2024-02-26T03:55:18;4.15;;;3.75;;
54269;SDS011;40181;51.560;13.000;2024-02-26T03:57:50;4.22;;;3.25;;
54269;SDS011;40181;51.560;13.000;2024-02-26T04:00:22;4.03;;;3.63;;
54269;SDS011;40181;51.560;13.000;2024-02-26T04:02:51;6.32;;;4.13;;
54269;SDS011;40181;51.560;13.000;2024-02-26T04:05:20;5.13;;;3.97;;
54269;SDS011;40181;51.560;13.000;2024-02-26T04:07:49;5.03;;;3.75;;
54269;SDS011;40181;51.560;13.000;2024-02-26T04:10:18;7.00;;;4.63;;
54269;SDS011;40181;51.560;13.000;2024-02-26T04:12:47;6.10;;;4.32;;
54269;SDS011;40181;51.560;13.000;2024-02-26T04:15:17;4.43;;;3.50;;
54269;SDS011;40181;51.560;13.000;2024-02-26T04:17:48;5.30;;;4.15;;
54269;SDS011;40181;51.560;13.000;2024-02-26T04:20:17;7.05;;;4.38;;
54269;SDS011;40181;51.560;13.000;2024-02-26T04:22:47;5.70;;;4.20;;
54269;SDS011;40181;51.560;13.000;2024-02-26T04:25:16;5.57;;;4.50;;
54269;SDS011;40181;51.560;13.000;2024-02-26T04:27:45;4.80;;;4.13;;
54269;SDS011;40181;51.560;13.000;2024-02-26T04:30:14;5.40;;;4.20;;
54269;SDS011;40181;51.560;13.000;2024-02-26T04:32:44;4.97;;;4.13;;
54269;SDS011;40181;51.560;13.000;2024-02-26T04:35:16;5.15;;;4.35;;
54269;SDS011;40181;51.560;13.000;2024-02-26T04:37:45;6.63;;;4.50;;
54269;SDS011;40181;51.560;13.000;2024-02-26T04:40:14;4.20;;;3.55;;
54269;SDS011;40181;51.560;13.000;2024-02-26T04:42:43;4.75;;;4.10;;
54269;SDS011;40181;51.560;13.000;2024-02-26T04:45:12;7.20;;;4.38;;
54269;SDS011;40181;51.560;13.000;2024-02-26T04:47:42;4.97;;;4.25;;
54269;SDS011;40181;51.560;13.000;2024-02-26T04:50:12;6.38;;;4.35;;
54269;SDS011;40181;51.560;13.000;2024-02-26T04:52:43;5.93;;;4.00;;
54269;SDS011;40181;51.560;13.000;2024-02-26T04:55:12;5.20;;;4.32;;
54269;SDS011;40181;51.560;13.000;2024-02-26T04:57:41;5.72;;;4.07;;
54269;SDS011;40181;51.560;13.000;2024-02-26T05:00:11;4.50;;;4.10;;
54269;SDS011;40181;51.560;13.000;2024-02-26T05:02:42;5.20;;;4.18;;
54269;SDS011;40181;51.560;13.000;2024-02-26T05:05:11;7.68;;;4.45;;
54269;SDS011;40181;51.560;13.000;2024-02-26T05:07:43;7.07;;;4.68;;
54269;SDS011;40181;51.560;13.000;2024-02-26T05:10:12;5.93;;;4.07;;
54269;SDS011;40181;51.560;13.000;2024-02-26T05:12:41;7.28;;;4.65;;
54269;SDS011;40181;51.560;13.000;2024-02-26T05:15:10;4.95;;;4.20;;
54269;SDS011;40181;51.560;13.000;2024-02-26T05:17:43;5.32;;;4.72;;
54269;SDS011;40181;51.560;13.000;2024-02-26T05:20:13;4.72;;;4.00;;
54269;SDS011;40181;51.560;13.000;2024-02-26T05:22:44;5.50;;;4.82;;
54269;SDS011;40181;51.560;13.000;2024-02-26T05:25:14;5.00;;;4.18;;
54269;SDS011;40181;51.560;13.000;2024-02-26T05:27:44;6.10;;;4.80;;
54269;SDS011;40181;51.560;13.000;2024-02-26T05:30:14;6.47;;;4.67;;
54269;SDS011;40181;51.560;13.000;2024-02-26T05:32:43;6.10;;;4.50;;
54269;SDS011;40181;51.560;13.000;2024-02-26T05:35:13;5.50;;;4.22;;
54269;SDS011;40181;51.560;13.000;2024-02-26T05:37:45;4.38;;;3.97;;
54269;SDS011;40181;51.560;13.000;2024-02-26T05:40:14;6.15;;;4.70;;
54269;SDS011;40181;51.560;13.000;2024-02-26T05:42:44;5.13;;;4.15;;
54269;SDS011;40181;51.560;13.000;2024-02-26T05:45:14;5.43;;;4.30;;
54269;SDS011;40181;51.560;13.000;2024-02-26T05:47:44;4.35;;;3.95;;
54269;SDS011;40181;51.560;13.000;2024-02-26T05:50:13;6.82;;;4.45;;
54269;SDS011;40181;51.560;13.000;2024-02-26T05:52:45;9.10;;;5.18;;
54269;SDS011;40181;51.560;13.000;2024-02-26T05:55:14;6.22;;;4.65;;
54269;SDS011;40181;51.560;13.000;2024-02-26T05:57:43;5.32;;;4.40;;
54269;SDS011;40181;51.560;13.000;2024-02-26T06:00:14;10.82;;;7.82;;
54269;SDS011;40181;51.560;13.000;2024-02-26T06:02:44;11.70;;;8.00;;
54269;SDS011;40181;51.560;13.000;2024-02-26T06:05:13;7.25;;;5.85;;
54269;SDS011;40181;51.560;13.000;2024-02-26T06:07:45;6.05;;;5.38;;
54269;SDS011;40181;51.560;13.000;2024-02-26T06:10:14;7.15;;;5.88;;
54269;SDS011;40181;51.560;13.000;2024-02-26T06:12:46;5.70;;;5.03;;
54269;SDS011;40181;51.560;13.000;2024-02-26T06:15:15;8.13;;;5.70;;
54269;SDS011;40181;51.560;13.000;2024-02-26T06:17:44;7.43;;;6.13;;
54269;SDS011;40181;51.560;13.000;2024-02-26T06:20:13;7.20;;;5.88;;
54269;SDS011;40181;51.560;13.000;2024-02-26T06:22:45;10.52;;;6.10;;
54269;SDS011;40181;51.560;13.000;2024-02-26T06:25:14;12.07;;;5.93;;
54269;SDS011;40181;51.560;13.000;2024-02-26T06:27:43;7.05;;;5.68;;
54269;SDS011;40181;51.560;13.000;2024-02-26T06:30:13;7.97;;;6.00;;
54269;SDS011;40181;51.560;13.000;2024-02-26T06:32:42;6.97;;;5.55;;
54269;SDS011;40181;51.560;13.000;2024-02-26T06:35:11;6.63;;;5.28;;
54269;SDS011;40181;51.560;13.000;2024-02-26T06:37:40;9.75;;;5.70;;
54269;SDS011;40181;51.560;13.000;2024-02-26T06:40:12;6.82;;;5.25;;
54269;SDS011;40181;51.560;13.000;2024-02-26T06:42:41;9.13;;;5.85;;
54269;SDS011;40181;51.560;13.000;2024-02-26T06:45:10;6.60;;;5.43;;
54269;SDS011;40181;51.560;13.000;2024-02-26T06:47:39;6.40;;;5.30;;
54269;SDS011;40181;51.560;13.000;2024-02-26T06:50:09;5.93;;;4.93;;
54269;SDS011;40181;51.560;13.000;2024-02-26T06:52:42;7.28;;;5.30;;
54269;SDS011;40181;51.560;13.000;2024-02-26T06:55:15;6.85;;;5.63;;
54269;SDS011;40181;51.560;13.000;2024-02-26T06:57:44;5.90;;;5.22;;
54269;SDS011;40181;51.560;13.000;2024-02-26T07:00:13;6.50;;;5.38;;
54269;SDS011;40181;51.560;13.000;2024-02-26T07:02:44;8.48;;;5.68;;
54269;SDS011;40181;51.560;13.000;2024-02-26T07:05:13;5.78;;;5.00;;
54269;SDS011;40181;51.560;13.000;2024-02-26T07:07:42;6.00;;;5.40;;
54269;SDS011;40181;51.560;13.000;2024-02-26T07:10:11;5.97;;;5.30;;
54269;SDS011;40181;51.560;13.000;2024-02-26T07:12:43;5.85;;;5.25;;
54269;SDS011;40181;51.560;13.000;2024-02-26T07:15:12;7.45;;;6.07;;
54269;SDS011;40181;51.560;13.000;2024-02-26T07:17:41;6.53;;;5.30;;
54269;SDS011;40181;51.560;13.000;2024-02-26T07:22:43;6.07;;;5.40;;
54269;SDS011;40181;51.560;13.000;2024-02-26T07:25:14;9.02;;;5.90;;
54269;SDS011;40181;51.560;13.000;2024-02-26T07:27:44;5.57;;;4.97;;
54269;SDS011;40181;51.560;13.000;2024-02-26T07:30:13;7.20;;;5.28;;
54269;SDS011;40181;51.560;13.000;2024-02-26T07:32:43;6.00;;;5.38;;
54269;SDS011;40181;51.560;13.000;2024-02-26T07:35:12;8.13;;;5.68;;
54269;SDS011;40181;51.560;13.000;2024-02-26T07:37:42;6.65;;;5.35;;
54269;SDS011;40181;51.560;13.000;2024-02-26T07:40:11;7.75;;;4.90;;
54269;SDS011;40181;51.560;13.000;2024-02-26T07:42:44;6.82;;;5.25;;
54269;SDS011;40181;51.560;13.000;2024-02-26T07:45:13;6.05;;;5.15;;
54269;SDS011;40181;51.560;13.000;2024-02-26T07:47:44;5.90;;;5.22;;
54269;SDS011;40181;51.560;13.000;2024-02-26T07:50:14;6.25;;;5.63;;
54269;SDS011;40181;51.560;13.000;2024-02-26T07:52:43;5.15;;;4.65;;
54269;SDS011;40181;51.560;13.000;2024-02-26T07:55:15;6.57;;;5.35;;
54269;SDS011;40181;51.560;13.000;2024-02-26T07:57:45;6.32;;;5.57;;
54269;SDS011;40181;51.560;13.000;2024-02-26T08:00:14;6.35;;;4.95;;
54269;SDS011;40181;51.560;13.000;2024-02-26T08:02:44;9.23;;;6.43;;
54269;SDS011;40181;51.560;13.000;2024-02-26T08:05:13;7.70;;;5.78;;
54269;SDS011;40181;51.560;13.000;2024-02-26T08:07:42;6.43;;;5.43;;
54269;SDS011;40181;51.560;13.000;2024-02-26T08:10:11;6.93;;;5.60;;
54269;SDS011;40181;51.560;13.000;2024-02-26T08:12:43;7.00;;;5.43;;
54269;SDS011;40181;51.560;13.000;2024-02-26T08:15:12;5.32;;;4.68;;
54269;SDS011;40181;51.560;13.000;2024-02-26T08:17:43;6.95;;;5.43;;
54269;SDS011;40181;51.560;13.000;2024-02-26T08:20:12;6.40;;;4.90;;
54269;SDS011;40181;51.560;13.000;2024-02-26T08:22:42;6.85;;;5.28;;
54269;SDS011;40181;51.560;13.000;2024-02-26T08:25:11;7.20;;;5.35;;
54269;SDS011;40181;51.560;13.000;2024-02-26T08:27:43;8.07;;;5.35;;
54269;SDS011;40181;51.560;13.000;2024-02-26T08:30:13;5.50;;;4.90;;
54269;SDS011;40181;51.560;13.000;2024-02-26T08:32:43;6.88;;;5.45;;
54269;SDS011;40181;51.560;13.000;2024-02-26T08:35:12;6.22;;;4.30;;
54269;SDS011;40181;51.560;13.000;2024-02-26T08:37:43;6.10;;;5.25;;
54269;SDS011;40181;51.560;13.000;2024-02-26T08:42:44;6.88;;;4.43;;
54269;SDS011;40181;51.560;13.000;2024-02-26T08:45:14;6.13;;;4.88;;
54269;SDS011;40181;51.560;13.000;2024-02-26T08:47:44;6.53;;;4.68;;
54269;SDS011;40181;51.560;13.000;2024-02-26T08:50:13;6.38;;;4.65;;
54269;SDS011;40181;51.560;13.000;2024-02-26T08:52:43;6.60;;;5.13;;
54269;SDS011;40181;51.560;13.000;2024-02-26T08:55:18;6.05;;;4.82;;
54269;SDS011;40181;51.560;13.000;2024-02-26T08:57:47;5.72;;;4.45;;
54269;SDS011;40181;51.560;13.000;2024-02-26T09:00:17;7.53;;;5.63;;
54269;SDS011;40181;51.560;13.000;2024-02-26T09:02:47;8.40;;;4.78;;
54269;SDS011;40181;51.560;13.000;2024-02-26T09:05:16;7.57;;;4.47;;
54269;SDS011;40181;51.560;13.000;2024-02-26T09:07:45;5.90;;;4.80;;
54269;SDS011;40181;51.560;13.000;2024-02-26T09:10:19;7.72;;;4.60;;
54269;SDS011;40181;51.560;13.000;2024-02-26T09:12:48;6.97;;;4.88;;
54269;SDS011;40181;51.560;13.000;2024-02-26T09:15:17;8.52;;;4.90;;
54269;SDS011;40181;51.560;13.000;2024-02-26T09:17:47;10.45;;;6.32;;
54269;SDS011;40181;51.560;13.000;2024-02-26T09:20:17;7.55;;;5.22;;
54269;SDS011;40181;51.560;13.000;2024-02-26T09:22:48;7.07;;;4.68;;
54269;SDS011;40181;51.560;13.000;2024-02-26T09:25:21;6.30;;;5.00;;
54269;SDS011;40181;51.560;13.000;2024-02-26T09:27:50;7.35;;;4.50;;
54269;SDS011;40181;51.560;13.000;2024-02-26T09:30:19;6.88;;;4.22;;
54269;SDS011;40181;51.560;13.000;2024-02-26T09:32:49;8.32;;;4.47;;
54269;SDS011;40181;51.560;13.000;2024-02-26T09:35:18;8.45;;;5.57;;
54269;SDS011;40181;51.560;13.000;2024-02-26T09:37:48;6.13;;;4.73;;
54269;SDS011;40181;51.560;13.000;2024-02-26T09:40:17;6.65;;;5.00;;
54269;SDS011;40181;51.560;13.000;2024-02-26T09:42:49;7.68;;;5.38;;
54269;SDS011;40181;51.560;13.000;2024-02-26T09:45:28;5.68;;;4.57;;
54269;SDS011;40181;51.560;13.000;2024-02-26T09:48:01;5.93;;;4.35;;
54269;SDS011;40181;51.560;13.000;2024-02-26T09:50:33;7.20;;;4.95;;
54269;SDS011;40181;51.560;13.000;2024-02-26T09:53:02;10.77;;;4.68;;
54269;SDS011;40181;51.560;13.000;2024-02-26T09:55:37;7.28;;;4.75;;
54269;SDS011;40181;51.560;13.000;2024-02-26T09:58:07;6.40;;;4.18;;
54269;SDS011;40181;51.560;13.000;2024-02-26T10:00:42;5.63;;;3.60;;
54269;SDS011;40181;51.560;13.000;2024-02-26T10:03:14;7.15;;;3.85;;
54269;SDS011;40181;51.560;13.000;2024-02-26T10:05:44;5.70;;;3.85;;
54269;SDS011;40181;51.560;13.000;2024-02-26T10:08:14;5.45;;;3.85;;
54269;SDS011;40181;51.560;13.000;2024-02-26T10:10:46;5.87;;;4.10;;
54269;SDS011;40181;51.560;13.000;2024-02-26T10:13:15;5.68;;;3.97;;
54269;SDS011;40181;51.560;13.000;2024-02-26T10:15:45;7.10;;;4.20;;
54269;SDS011;40181;51.560;13.000;2024-02-26T10:18:14;8.40;;;4.43;;
54269;SDS011;40181;51.560;13.000;2024-02-26T10:20:45;12.55;;;3.65;;
54269;SDS011;40181;51.560;13.000;2024-02-26T10:23:28;4.45;;;3.42;;
54269;SDS011;40181;51.560;13.000;2024-02-26T10:25:59;6.75;;;3.85;;
54269;SDS011;40181;51.560;13.000;2024-02-26T10:28:29;6.03;;;3.72;;
54269;SDS011;40181;51.560;13.000;2024-02-26T10:30:58;4.88;;;3.15;;
54269;SDS011;40181;51.560;13.000;2024-02-26T10:33:28;6.43;;;4.20;;
54269;SDS011;40181;51.560;13.000;2024-02-26T10:35:57;6.60;;;4.03;;
54269;SDS011;40181;51.560;13.000;2024-02-26T10:38:27;5.60;;;3.17;;
54269;SDS011;40181;51.560;13.000;2024-02-26T10:40:57;4.73;;;3.17;;
54269;SDS011;40181;51.560;13.000;2024-02-26T10:43:30;6.50;;;3.83;;
54269;SDS011;40181;51.560;13.000;2024-02-26T10:45:59;3.55;;;2.85;;
54269;SDS011;40181;51.560;13.000;2024-02-26T10:48:28;3.17;;;2.72;;
54269;SDS011;40181;51.560;13.000;2024-02-26T10:50:57;4.55;;;3.30;;
54269;SDS011;40181;51.560;13.000;2024-02-26T10:53:28;8.50;;;3.83;;
54269;SDS011;40181;51.560;13.000;2024-02-26T10:56:02;4.18;;;2.70;;
54269;SDS011;40181;51.560;13.000;2024-02-26T10:58:33;4.60;;;3.15;;
54269;SDS011;40181;51.560;13.000;2024-02-26T11:01:04;6.05;;;3.20;;
54269;SDS011;40181;51.560;13.000;2024-02-26T11:03:34;2.37;;;1.97;;
54269;SDS011;40181;51.560;13.000;2024-02-26T11:08:35;4.78;;;2.78;;
54269;SDS011;40181;51.560;13.000;2024-02-26T11:11:07;5.60;;;2.67;;
54269;SDS011;40181;51.560;13.000;2024-02-26T11:13:40;7.18;;;2.80;;
54269;SDS011;40181;51.560;13.000;2024-02-26T11:16:14;4.07;;;2.45;;
54269;SDS011;40181;51.560;13.000;2024-02-26T11:21:15;5.05;;;2.67;;
54269;SDS011;40181;51.560;13.000;2024-02-26T11:23:52;4.30;;;2.88;;
54269;SDS011;40181;51.560;13.000;2024-02-26T11:26:24;5.47;;;2.80;;
54269;SDS011;40181;51.560;13.000;2024-02-26T11:28:56;7.10;;;3.22;;
54269;SDS011;40181;51.560;13.000;2024-02-26T11:31:25;3.63;;;2.88;;
54269;SDS011;40181;51.560;13.000;2024-02-26T11:33:55;3.80;;;2.67;;
54269;SDS011;40181;51.560;13.000;2024-02-26T11:36:25;3.63;;;2.78;;
54269;SDS011;40181;51.560;13.000;2024-02-26T11:38:54;6.13;;;3.72;;
54269;SDS011;40181;51.560;13.000;2024-02-26T11:41:26;3.38;;;2.33;;
54269;SDS011;40181;51.560;13.000;2024-02-26T11:43:57;4.95;;;2.78;;
54269;SDS011;40181;51.560;13.000;2024-02-26T11:46:32;5.30;;;2.80;;
54269;SDS011;40181;51.560;13.000;2024-02-26T11:52:00;8.00;;;2.85;;
54269;SDS011;40181;51.560;13.000;2024-02-26T11:54:38;4.75;;;2.70;;
54269;SDS011;40181;51.560;13.000;2024-02-26T11:57:23;5.97;;;2.95;;
54269;SDS011;40181;51.560;13.000;2024-02-26T11:59:54;9.75;;;2.47;;
54269;SDS011;40181;51.560;13.000;2024-02-26T12:05:09;4.28;;;2.83;;
54269;SDS011;40181;51.560;13.000;2024-02-26T12:07:42;4.95;;;3.17;;
54269;SDS011;40181;51.560;13.000;2024-02-26T12:10:21;6.35;;;3.05;;
54269;SDS011;40181;51.560;13.000;2024-02-26T12:12:56;7.15;;;3.58;;
54269;SDS011;40181;51.560;13.000;2024-02-26T12:15:31;6.43;;;4.40;;
54269;SDS011;40181;51.560;13.000;2024-02-26T12:18:03;6.70;;;3.67;;
54269;SDS011;40181;51.560;13.000;2024-02-26T12:20:35;4.40;;;3.33;;
54269;SDS011;40181;51.560;13.000;2024-02-26T12:23:05;6.13;;;3.97;;
54269;SDS011;40181;51.560;13.000;2024-02-26T12:25:34;8.18;;;3.72;;
54269;SDS011;40181;51.560;13.000;2024-02-26T12:28:06;4.75;;;2.70;;
54269;SDS011;40181;51.560;13.000;2024-02-26T12:30:36;3.35;;;2.78;;
54269;SDS011;40181;51.560;13.000;2024-02-26T12:33:05;6.90;;;4.07;;
54269;SDS011;40181;51.560;13.000;2024-02-26T12:35:34;7.00;;;3.08;;
54269;SDS011;40181;51.560;13.000;2024-02-26T12:38:04;5.00;;;3.23;;
54269;SDS011;40181;51.560;13.000;2024-02-26T12:40:33;4.35;;;2.90;;
54269;SDS011;40181;51.560;13.000;2024-02-26T12:43:02;4.18;;;2.75;;
54269;SDS011;40181;51.560;13.000;2024-02-26T12:45:38;4.95;;;2.88;;
54269;SDS011;40181;51.560;13.000;2024-02-26T12:48:11;5.82;;;4.00;;
54269;SDS011;40181;51.560;13.000;2024-02-26T12:50:44;7.18;;;4.30;;
54269;SDS011;40181;51.560;13.000;2024-02-26T12:53:13;5.32;;;3.28;;
54269;SDS011;40181;51.560;13.000;2024-02-26T12:55:43;4.77;;;3.30;;
54269;SDS011;40181;51.560;13.000;2024-02-26T12:58:15;5.85;;;2.92;;
54269;SDS011;40181;51.560;13.000;2024-02-26T13:00:45;5.10;;;3.05;;
54269;SDS011;40181;51.560;13.000;2024-02-26T13:03:14;6.50;;;3.08;;
54269;SDS011;40181;51.560;13.000;2024-02-26T13:05:44;6.75;;;3.08;;
54269;SDS011;40181;51.560;13.000;2024-02-26T13:08:17;4.22;;;2.95;;
54269;SDS011;40181;51.560;13.000;2024-02-26T13:10:46;4.40;;;2.88;;
54269;SDS011;40181;51.560;13.000;2024-02-26T13:13:19;3.30;;;2.80;;
54269;SDS011;40181;51.560;13.000;2024-02-26T13:15:48;5.07;;;3.65;;
54269;SDS011;40181;51.560;13.000;2024-02-26T13:18:17;6.28;;;3.10;;
54269;SDS011;40181;51.560;13.000;2024-02-26T13:20:46;4.43;;;3.03;;
54269;SDS011;40181;51.560;13.000;2024-02-26T13:23:15;5.63;;;3.15;;
54269;SDS011;40181;51.560;13.000;2024-02-26T13:25:44;5.22;;;4.18;;
54269;SDS011;40181;51.560;13.000;2024-02-26T13:28:13;6.10;;;4.15;;
54269;SDS011;40181;51.560;13.000;2024-02-26T13:30:52;10.65;;;5.57;;
54269;SDS011;40181;51.560;13.000;2024-02-26T13:33:24;4.83;;;3.50;;
54269;SDS011;40181;51.560;13.000;2024-02-26T13:38:24;7.20;;;4.57;;
54269;SDS011;40181;51.560;13.000;2024-02-26T13:40:54;6.03;;;3.77;;
54269;SDS011;40181;51.560;13.000;2024-02-26T13:43:23;7.95;;;4.40;;
54269;SDS011;40181;51.560;13.000;2024-02-26T13:45:55;5.38;;;3.85;;
54269;SDS011;40181;51.560;13.000;2024-02-26T13:48:24;6.97;;;4.70;;
54269;SDS011;40181;51.560;13.000;2024-02-26T13:50:53;9.13;;;4.93;;
54269;SDS011;40181;51.560;13.000;2024-02-26T13:53:22;6.22;;;3.67;;
54269;SDS011;40181;51.560;13.000;2024-02-26T13:55:51;8.88;;;5.18;;
54269;SDS011;40181;51.560;13.000;2024-02-26T14:00:54;5.43;;;4.22;;
54269;SDS011;40181;51.560;13.000;2024-02-26T14:03:24;12.52;;;5.90;;
54269;SDS011;40181;51.560;13.000;2024-02-26T14:05:54;6.30;;;4.50;;
54269;SDS011;40181;51.560;13.000;2024-02-26T14:08:23;6.82;;;4.55;;
54269;SDS011;40181;51.560;13.000;2024-02-26T14:10:52;5.72;;;4.75;;
54269;SDS011;40181;51.560;13.000;2024-02-26T14:13:21;11.80;;;6.28;;
54269;SDS011;40181;51.560;13.000;2024-02-26T14:15:50;5.88;;;4.65;;
54269;SDS011;40181;51.560;13.000;2024-02-26T14:18:22;9.32;;;5.13;;
54269;SDS011;40181;51.560;13.000;2024-02-26T14:20:52;9.23;;;5.32;;
54269;SDS011;40181;51.560;13.000;2024-02-26T14:23:21;9.05;;;4.32;;
54269;SDS011;40181;51.560;13.000;2024-02-26T14:25:50;7.50;;;4.45;;
54269;SDS011;40181;51.560;13.000;2024-02-26T14:28:19;6.40;;;4.55;;
54269;SDS011;40181;51.560;13.000;2024-02-26T14:30:49;5.55;;;4.50;;
54269;SDS011;40181;51.560;13.000;2024-02-26T14:33:18;4.07;;;3.58;;
54269;SDS011;40181;51.560;13.000;2024-02-26T14:35:50;9.60;;;4.95;;
54269;SDS011;40181;51.560;13.000;2024-02-26T14:38:19;8.63;;;6.40;;
54269;SDS011;40181;51.560;13.000;2024-02-26T14:40:48;8.07;;;4.82;;
54269;SDS011;40181;51.560;13.000;2024-02-26T14:43:18;6.00;;;4.38;;
54269;SDS011;40181;51.560;13.000;2024-02-26T14:45:47;5.28;;;4.03;;
54269;SDS011;40181;51.560;13.000;2024-02-26T14:48:16;8.88;;;4.95;;
54269;SDS011;40181;51.560;13.000;2024-02-26T14:50:47;8.82;;;3.92;;
54269;SDS011;40181;51.560;13.000;2024-02-26T14:53:18;5.70;;;4.38;;
54269;SDS011;40181;51.560;13.000;2024-02-26T14:55:48;8.00;;;4.67;;
54269;SDS011;40181;51.560;13.000;2024-02-26T14:58:17;7.00;;;3.97;;
54269;SDS011;40181;51.560;13.000;2024-02-26T15:00:46;4.57;;;3.35;;
54269;SDS011;40181;51.560;13.000;2024-02-26T15:03:15;6.53;;;4.53;;
54269;SDS011;40181;51.560;13.000;2024-02-26T15:05:44;8.30;;;4.93;;
54269;SDS011;40181;51.560;13.000;2024-02-26T15:08:16;8.43;;;4.55;;
54269;SDS011;40181;51.560;13.000;2024-02-26T15:10:45;7.85;;;3.88;;
54269;SDS011;40181;51.560;13.000;2024-02-26T15:13:15;6.53;;;4.20;;
54269;SDS011;40181;51.560;13.000;2024-02-26T15:15:44;7.03;;;4.95;;